map of BOG home
Great Circle Mapper logo
BOG - Airport
Location
City:  Bogotá, Colombia
Name:El Nuevo Dorado International Airport
ICAO / IATA:SKBO / BOG

Details
Type:Airport (Aerodrome, Airfield)
Use:International (customs port of entry)
Latitude:4°42'11"N (4.703056)
Longitude:74°08'18"W (-74.138332)
Elevation:8361 ft (2548 m)
Runways:2
Longest:12467 × 148 ft (3800 × 45 m), paved

Time
Time Zone:UTC-5
Local Time:

Weather
METAR:SKBO 251030Z 08004KT 9999 FEW020 09/08 A3033
TAF:SKBO 242200Z 250024 02005KT 9999 SCT020 PROB30 2504/2507 -DZ BKN020
TEMPO 2509/2511 DZ SCT015
TEMPO 2513/2517 9000 VCSH BKN018
TEMPO 2519/2522 16018KT BKN020 TX19/2518Z TN09/2511Z

Related Locations
Nearby:
Farthest:TKG: 12379 mi / 19923 km
Bandar Lampung [Branti (Radin Inten Li)], ID

Find:

   beyond  
but within

Other Information
Maps:
NOTAMs:
Links:
Sources:

  
flag of Colombia   

Airport Diagram

Airport diagram for BOG

Airport diagram (OBSOLETE) from NGA

Sectional Chart

Flight Planning
at skyvector.com

Satellite Image

Google Maps Satellite View

 

Copyright © 2004-2014 Karl L. Swartz. All rights reserved.
The Great Circle Mapper name and logo are trademarks of the Great Circle Mapper.
All other trademarks mentioned herein belong to their respective owners.
Please see credits for attibutions and further copyright information.

  Follow gcmap on Facebook Follow gcmap on Twitter

hCard Microformat

Geo Microformat